Time;durP1;ratioP1;P1;durP2;ratioP2;P2;SDS_P1;SDS_P2;PMS_P1;PMS_P2;Temp;Humidity;BMP_temperature;BMP_pressure;BME280_temperature;BME280_humidity;BME280_pressure;Samples;Min_cycle;Max_cycle;Signal;HPM_P1;HPM_P2
2022/07/09 00:00:12;;;;;;;4.40;2.92;;;17.20;99.90;;;;;;5052472;28;20053;-49
2022/07/09 00:02:37;;;;;;;4.53;2.72;;;17.20;99.90;;;;;;5052488;28;20395;-42
2022/07/09 00:05:03;;;;;;;3.33;2.55;;;17.10;99.90;;;;;;5052446;28;20029;-40
2022/07/09 00:07:29;;;;;;;3.92;2.38;;;17.10;99.90;;;;;;5052454;28;20024;-45
2022/07/09 00:09:55;;;;;;;4.97;2.78;;;17.10;99.90;;;;;;5051438;28;20033;-43
2022/07/09 00:12:20;;;;;;;5.47;2.83;;;17.10;99.90;;;;;;5052372;28;20021;-46
2022/07/09 00:14:46;;;;;;;4.72;2.58;;;17.10;99.90;;;;;;5052078;28;20175;-52
2022/07/09 00:17:12;;;;;;;4.85;2.53;;;17.00;99.90;;;;;;5051931;28;20029;-41
2022/07/09 00:19:38;;;;;;;4.47;2.90;;;17.00;99.90;;;;;;5052336;28;20128;-41
2022/07/09 00:22:05;;;;;;;3.75;2.42;;;17.00;99.90;;;;;;5052072;28;20042;-48
2022/07/09 00:24:31;;;;;;;3.78;2.88;;;16.90;99.90;;;;;;5067350;28;20510;-41
2022/07/09 00:26:57;;;;;;;4.32;2.65;;;16.90;99.90;;;;;;5052416;28;20032;-42
2022/07/09 00:29:23;;;;;;;5.20;2.25;;;16.90;99.90;;;;;;5051921;28;20372;-47
2022/07/09 00:31:48;;;;;;;4.93;2.70;;;16.80;99.90;;;;;;5051756;28;20035;-52
2022/07/09 00:34:14;;;;;;;4.80;2.78;;;16.80;99.90;;;;;;5050944;28;20502;-52
2022/07/09 00:36:40;;;;;;;6.30;2.53;;;16.80;99.90;;;;;;5051917;28;20066;-42
2022/07/09 00:39:05;;;;;;;6.47;2.33;;;16.70;99.90;;;;;;5052185;28;20021;-57
2022/07/09 00:41:31;;;;;;;4.18;2.63;;;16.50;99.90;;;;;;5052101;28;20435;-42
2022/07/09 00:43:57;;;;;;;5.00;2.83;;;16.30;99.90;;;;;;5051868;28;20427;-52
2022/07/09 00:46:23;;;;;;;5.88;2.60;;;16.30;99.90;;;;;;5051657;28;20021;-58
2022/07/09 00:48:48;;;;;;;3.72;2.65;;;16.30;99.90;;;;;;5051933;28;20029;-53
2022/07/09 00:51:16;;;;;;;4.55;2.63;;;16.20;99.90;;;;;;5051530;28;20040;-58
2022/07/09 00:53:42;;;;;;;3.30;2.15;;;16.20;99.90;;;;;;5037878;28;20052;-49
2022/07/09 00:56:11;;;;;;;4.57;2.65;;;16.20;99.90;;;;;;5051782;28;20064;-55
2022/07/09 00:58:38;;;;;;;3.78;2.70;;;16.30;99.90;;;;;;5051565;28;20086;-46
2022/07/09 01:01:06;;;;;;;5.05;2.58;;;16.30;99.90;;;;;;5051452;28;20123;-41
2022/07/09 01:03:32;;;;;;;4.18;3.08;;;16.30;99.90;;;;;;5049970;28;20021;-43
2022/07/09 01:05:58;;;;;;;4.15;2.80;;;16.40;99.90;;;;;;5051552;28;20744;-44
2022/07/09 01:08:25;;;;;;;5.38;3.13;;;16.40;99.90;;;;;;5051126;28;20483;-55
2022/07/09 01:10:51;;;;;;;6.22;3.53;;;16.40;99.90;;;;;;5051104;28;20027;-51
2022/07/09 01:13:17;;;;;;;5.88;3.08;;;16.40;99.90;;;;;;5051451;28;20036;-48
2022/07/09 01:15:43;;;;;;;4.18;2.67;;;16.40;99.90;;;;;;5051260;28;20028;-50
2022/07/09 01:18:12;;;;;;;4.75;2.85;;;16.40;99.90;;;;;;5051264;28;20017;-48
2022/07/09 01:20:38;;;;;;;4.95;2.60;;;16.40;99.90;;;;;;5051075;28;20086;-52
2022/07/09 01:23:05;;;;;;;4.57;2.53;;;16.40;99.90;;;;;;5051163;28;20017;-52
2022/07/09 01:25:43;;;;;;;3.97;2.60;;;16.40;99.90;;;;;;5050961;28;20025;-46
2022/07/09 01:28:09;;;;;;;4.60;2.67;;;16.30;99.90;;;;;;5050294;28;20500;-48
2022/07/09 01:30:38;;;;;;;6.57;4.30;;;16.30;99.90;;;;;;5051278;28;20047;-46
2022/07/09 01:33:04;;;;;;;5.10;3.50;;;16.40;99.90;;;;;;5051864;28;20021;-50
2022/07/09 01:35:33;;;;;;;5.13;3.10;;;16.30;99.90;;;;;;5054355;28;20549;-56
2022/07/09 01:37:59;;;;;;;7.15;3.72;;;16.30;99.90;;;;;;5051467;28;20029;-56
2022/07/09 01:40:25;;;;;;;4.57;3.00;;;16.30;99.90;;;;;;5051183;28;20096;-60
2022/07/09 01:42:50;;;;;;;5.68;3.17;;;16.30;99.90;;;;;;5049970;28;20025;-51
2022/07/09 01:45:17;;;;;;;4.60;3.38;;;16.30;99.90;;;;;;5049889;28;20033;-52
2022/07/09 01:47:43;;;;;;;5.95;3.50;;;16.30;99.90;;;;;;5051027;28;20017;-59
2022/07/09 01:50:09;;;;;;;4.18;2.75;;;16.20;99.90;;;;;;5063264;28;20131;-57
2022/07/09 01:52:35;;;;;;;4.53;2.97;;;16.20;99.90;;;;;;5048668;28;20452;-54
2022/07/09 01:55:01;;;;;;;6.45;3.30;;;16.20;99.90;;;;;;5049324;28;20050;-44
2022/07/09 01:57:27;;;;;;;3.85;2.58;;;16.30;99.90;;;;;;5051057;28;20025;-60
2022/07/09 01:59:53;;;;;;;5.53;2.90;;;16.30;99.70;;;;;;5050677;28;20048;-60
2022/07/09 02:02:19;;;;;;;5.32;2.72;;;16.30;99.30;;;;;;5051308;28;20487;-57
2022/07/09 02:04:46;;;;;;;4.35;3.00;;;16.30;99.20;;;;;;5050979;28;20444;-51
2022/07/09 02:07:13;;;;;;;4.40;2.70;;;16.40;99.10;;;;;;5050926;28;20100;-52
2022/07/09 02:09:39;;;;;;;5.28;2.88;;;16.40;98.70;;;;;;5050879;28;20120;-57
2022/07/09 02:12:05;;;;;;;4.20;2.75;;;16.40;99.00;;;;;;5050701;28;20025;-61
2022/07/09 02:14:32;;;;;;;5.55;2.70;;;16.50;98.70;;;;;;5050779;28;20033;-54
2022/07/09 02:16:58;;;;;;;3.58;2.60;;;16.50;98.60;;;;;;5049558;28;20357;-61
2022/07/09 02:19:23;;;;;;;5.25;2.75;;;16.50;98.70;;;;;;5051039;28;20040;-55
2022/07/09 02:21:49;;;;;;;3.90;2.88;;;16.50;98.60;;;;;;5054151;28;20017;-57
2022/07/09 02:24:15;;;;;;;4.45;2.90;;;16.50;98.50;;;;;;5054562;28;20041;-50
2022/07/09 02:26:41;;;;;;;5.28;2.90;;;16.60;98.50;;;;;;5054629;28;20108;-60
2022/07/09 02:29:07;;;;;;;5.20;2.92;;;16.50;98.70;;;;;;5054480;28;20168;-49
2022/07/09 02:31:33;;;;;;;4.55;3.00;;;16.50;98.40;;;;;;5054560;28;20017;-51
2022/07/09 02:33:59;;;;;;;5.10;3.22;;;16.50;98.50;;;;;;5055001;28;20033;-42
2022/07/09 02:36:24;;;;;;;4.70;3.33;;;16.50;98.50;;;;;;5054685;28;20028;-59
2022/07/09 02:38:50;;;;;;;4.45;2.97;;;16.50;98.60;;;;;;5054580;28;20066;-54
2022/07/09 02:41:16;;;;;;;4.95;3.45;;;16.40;98.70;;;;;;5054263;28;20116;-50
2022/07/09 02:43:43;;;;;;;4.90;3.10;;;16.20;98.60;;;;;;5054182;28;20032;-46
2022/07/09 02:46:09;;;;;;;4.25;2.92;;;16.20;99.00;;;;;;5054268;28;20033;-38
2022/07/09 02:48:35;;;;;;;4.72;3.20;;;16.10;99.20;;;;;;5054131;28;20490;-38
2022/07/09 02:51:01;;;;;;;4.18;3.08;;;16.10;99.10;;;;;;5054054;28;20025;-37
2022/07/09 02:53:26;;;;;;;4.43;3.35;;;16.00;99.20;;;;;;5069291;28;20025;-38
2022/07/09 02:55:52;;;;;;;4.38;2.95;;;16.00;99.30;;;;;;5053959;28;20395;-58
2022/07/09 02:58:18;;;;;;;4.50;3.08;;;16.00;99.20;;;;;;5053793;28;20029;-58
2022/07/09 03:00:44;;;;;;;4.63;2.67;;;16.00;99.10;;;;;;5054006;28;20095;-53
2022/07/09 03:03:10;;;;;;;4.15;2.78;;;16.00;99.10;;;;;;5053557;28;20120;-55
2022/07/09 03:05:36;;;;;;;4.47;2.80;;;16.00;98.90;;;;;;5053954;28;20041;-60
2022/07/09 03:08:02;;;;;;;3.50;2.47;;;16.00;98.90;;;;;;5054198;28;20078;-53
2022/07/09 03:10:27;;;;;;;4.60;2.88;;;16.10;98.70;;;;;;5053806;28;20032;-49
2022/07/09 03:12:53;;;;;;;4.95;2.60;;;16.10;98.70;;;;;;5053836;28;20013;-50
2022/07/09 03:15:19;;;;;;;6.05;3.15;;;16.10;98.60;;;;;;5053618;28;20371;-42
2022/07/09 03:17:46;;;;;;;4.60;3.08;;;16.10;98.90;;;;;;5052620;28;20453;-39
2022/07/09 03:20:13;;;;;;;4.72;2.72;;;16.00;98.90;;;;;;5053666;28;20096;-40
2022/07/09 03:22:40;;;;;;;3.88;2.83;;;16.00;99.00;;;;;;5053215;28;20484;-50
2022/07/09 03:25:07;;;;;;;3.80;2.45;;;15.80;99.10;;;;;;5053067;28;20043;-48
2022/07/09 03:27:33;;;;;;;4.35;2.63;;;15.80;98.90;;;;;;5053100;28;20032;-50
2022/07/09 03:29:59;;;;;;;3.58;2.30;;;15.80;99.10;;;;;;5053356;28;20055;-50
2022/07/09 03:32:25;;;;;;;3.70;2.50;;;15.80;99.20;;;;;;5053159;28;20017;-55
2022/07/09 03:34:52;;;;;;;4.13;2.38;;;15.90;99.30;;;;;;5053321;28;20032;-57
2022/07/09 03:37:21;;;;;;;3.80;2.10;;;15.90;99.30;;;;;;5053090;28;20035;-44
2022/07/09 03:39:47;;;;;;;3.45;2.20;;;15.90;99.00;;;;;;5053200;28;20379;-58
2022/07/09 03:42:13;;;;;;;3.40;2.10;;;16.00;98.90;;;;;;5053065;28;20021;-52
2022/07/09 03:44:39;;;;;;;3.10;2.10;;;16.00;98.70;;;;;;5052880;28;20072;-53
2022/07/09 03:47:06;;;;;;;3.78;2.10;;;16.00;99.00;;;;;;5053164;28;20056;-54
2022/07/09 03:49:32;;;;;;;3.47;2.10;;;16.00;99.10;;;;;;5052671;28;20483;-47
2022/07/09 03:51:59;;;;;;;3.63;2.20;;;16.00;99.10;;;;;;5053008;28;20033;-54
2022/07/09 03:54:24;;;;;;;3.97;2.10;;;16.00;99.00;;;;;;5052771;28;20035;-54
2022/07/09 03:56:50;;;;;;;3.55;1.98;;;16.00;99.20;;;;;;5052535;28;20108;-53
2022/07/09 03:59:16;;;;;;;2.78;1.85;;;16.00;99.00;;;;;;5052837;28;20025;-53
2022/07/09 04:01:42;;;;;;;3.78;2.13;;;16.00;99.10;;;;;;5067756;28;20052;-60
2022/07/09 04:04:08;;;;;;;3.08;2.00;;;16.00;99.10;;;;;;5052802;28;20094;-49
2022/07/09 04:06:34;;;;;;;2.78;1.95;;;15.90;99.30;;;;;;5052549;28;20017;-61
2022/07/09 04:09:06;;;;;;;3.47;2.17;;;15.90;99.20;;;;;;5052471;28;20021;-48
2022/07/09 04:11:32;;;;;;;3.30;2.10;;;15.80;99.30;;;;;;5052250;28;20113;-56
2022/07/09 04:13:59;;;;;;;3.75;1.90;;;15.80;99.30;;;;;;5052544;28;20026;-55
2022/07/09 04:16:25;;;;;;;3.40;1.92;;;15.80;99.30;;;;;;5052474;28;20060;-52
2022/07/09 04:18:51;;;;;;;2.92;1.90;;;15.90;99.50;;;;;;5052508;28;20063;-49
2022/07/09 04:21:16;;;;;;;3.10;2.03;;;15.90;99.60;;;;;;5052476;28;20036;-54
2022/07/09 04:23:42;;;;;;;3.53;2.20;;;15.90;99.50;;;;;;5051461;28;20055;-53
2022/07/09 04:26:09;;;;;;;3.35;2.00;;;15.90;99.70;;;;;;5051987;28;20029;-55
2022/07/09 04:28:37;;;;;;;3.22;2.10;;;15.80;99.40;;;;;;5051360;28;20029;-51
2022/07/09 04:31:03;;;;;;;4.28;2.35;;;15.70;99.60;;;;;;5052064;28;20052;-59
2022/07/09 04:33:29;;;;;;;4.32;2.40;;;15.70;99.60;;;;;;5052264;28;20051;-58
2022/07/09 04:35:55;;;;;;;5.00;2.22;;;15.70;99.70;;;;;;5051955;28;20535;-52
2022/07/09 04:38:21;;;;;;;3.42;1.95;;;15.70;99.70;;;;;;5051897;28;20597;-51
2022/07/09 04:40:47;;;;;;;5.10;2.28;;;15.70;99.70;;;;;;5051448;28;20045;-55
2022/07/09 04:43:12;;;;;;;3.42;2.15;;;15.70;99.90;;;;;;5051279;28;20017;-57
2022/07/09 04:45:38;;;;;;;3.45;2.22;;;15.70;99.90;;;;;;5051583;28;20035;-52
2022/07/09 04:48:04;;;;;;;3.28;2.25;;;15.80;99.80;;;;;;5051623;28;20021;-57
2022/07/09 04:50:30;;;;;;;3.63;2.20;;;15.70;99.90;;;;;;5051666;28;20037;-55
2022/07/09 04:52:56;;;;;;;4.72;2.25;;;15.70;99.80;;;;;;5051741;28;20036;-57
2022/07/09 04:55:22;;;;;;;3.08;2.05;;;15.80;99.90;;;;;;5051694;28;20021;-52
2022/07/09 04:57:50;;;;;;;3.17;2.10;;;15.80;99.80;;;;;;5051655;28;20017;-41
2022/07/09 05:00:16;;;;;;;3.13;2.00;;;15.80;99.90;;;;;;5050060;28;20059;-52
2022/07/09 05:02:43;;;;;;;3.90;1.85;;;16.00;99.90;;;;;;5051468;28;20138;-61
2022/07/09 05:05:09;;;;;;;2.60;1.60;;;16.30;99.40;;;;;;5051335;28;20044;-54
2022/07/09 05:07:36;;;;;;;4.78;1.70;;;16.70;98.80;;;;;;5051315;28;20199;-50
2022/07/09 05:10:02;;;;;;;3.63;1.75;;;17.30;98.30;;;;;;5050484;28;20021;-48
2022/07/09 05:12:31;;;;;;;2.83;1.40;;;17.70;97.00;;;;;;5049253;28;20025;-48
2022/07/09 05:14:57;;;;;;;2.58;1.55;;;18.00;96.40;;;;;;5051112;28;20517;-51
2022/07/09 05:17:24;;;;;;;2.75;1.38;;;18.30;95.40;;;;;;5051170;28;20029;-53
2022/07/09 05:19:50;;;;;;;2.30;1.23;;;18.50;95.00;;;;;;5050075;28;20017;-41
2022/07/09 05:22:16;;;;;;;2.42;1.42;;;18.50;94.60;;;;;;5050612;28;20032;-50
2022/07/09 05:24:42;;;;;;;2.63;1.65;;;18.50;95.00;;;;;;5050389;28;20033;-47
2022/07/09 05:27:09;;;;;;;2.83;1.55;;;18.50;95.10;;;;;;5050122;28;20037;-56
2022/07/09 05:29:35;;;;;;;1.98;1.15;;;18.50;95.20;;;;;;5050266;28;20696;-59
2022/07/09 05:32:01;;;;;;;2.70;1.58;;;18.50;95.00;;;;;;5046993;28;20086;-48
2022/07/09 05:34:27;;;;;;;1.95;1.50;;;18.50;95.30;;;;;;5050784;28;20076;-52
2022/07/09 05:36:54;;;;;;;1.90;1.30;;;18.50;95.60;;;;;;5050120;28;20032;-56
2022/07/09 05:39:20;;;;;;;3.00;1.55;;;18.50;95.50;;;;;;5048818;28;20110;-54
2022/07/09 05:41:46;;;;;;;2.58;1.38;;;18.60;95.40;;;;;;5050088;28;20041;-53
2022/07/09 05:44:12;;;;;;;3.30;1.60;;;18.80;95.40;;;;;;5050310;28;20056;-52
2022/07/09 05:46:38;;;;;;;2.83;1.35;;;18.90;95.20;;;;;;5050393;28;20032;-55
2022/07/09 05:49:04;;;;;;;2.60;1.25;;;19.10;95.60;;;;;;5049748;28;20079;-51
2022/07/09 05:51:29;;;;;;;2.20;1.38;;;19.40;94.40;;;;;;5051125;28;20068;-59
2022/07/09 05:53:55;;;;;;;1.40;1.10;;;19.80;93.70;;;;;;5050808;28;20036;-53
2022/07/09 05:56:21;;;;;;;1.42;1.10;;;20.20;92.80;;;;;;5053380;28;20025;-56
2022/07/09 05:58:47;;;;;;;2.03;1.42;;;20.90;92.40;;;;;;5054990;28;20025;-56
2022/07/09 06:01:13;;;;;;;3.17;1.23;;;21.60;91.10;;;;;;5053826;28;20049;-54
2022/07/09 06:03:40;;;;;;;3.08;1.20;;;22.50;88.90;;;;;;5053947;28;20025;-53
2022/07/09 06:06:06;;;;;;;1.70;1.20;;;23.30;84.90;;;;;;5053901;28;20478;-54
2022/07/09 06:08:33;;;;;;;2.13;1.00;;;24.00;80.60;;;;;;5054011;28;20025;-45
2022/07/09 06:10:59;;;;;;;2.22;1.20;;;24.70;80.60;;;;;;5053333;28;20025;-56
2022/07/09 06:13:25;;;;;;;1.90;1.15;;;25.40;75.90;;;;;;5052194;28;20108;-49
2022/07/09 06:15:51;;;;;;;1.85;1.15;;;26.20;75.20;;;;;;5053205;28;20162;-51
2022/07/09 06:18:17;;;;;;;1.55;1.00;;;27.00;71.70;;;;;;5053879;28;20035;-43
2022/07/09 06:20:44;;;;;;;2.13;1.33;;;27.50;69.60;;;;;;5054128;28;20104;-55
2022/07/09 06:23:09;;;;;;;3.17;0.90;;;27.80;66.50;;;;;;5053350;28;20463;-57
2022/07/09 06:25:35;;;;;;;1.73;1.10;;;28.30;64.90;;;;;;5054266;28;20087;-58
2022/07/09 06:28:01;;;;;;;1.70;1.00;;;28.40;64.00;;;;;;5054430;28;20051;-60
2022/07/09 06:30:27;;;;;;;2.78;1.00;;;28.50;62.50;;;;;;5054355;28;20025;-52
2022/07/09 06:32:53;;;;;;;1.55;1.05;;;28.80;63.20;;;;;;5054316;28;20048;-49
2022/07/09 06:35:18;;;;;;;1.98;1.00;;;29.00;60.50;;;;;;5054292;28;20033;-58
2022/07/09 06:37:44;;;;;;;1.20;0.93;;;29.20;61.80;;;;;;5054349;28;20025;-55
2022/07/09 06:40:10;;;;;;;1.48;0.90;;;29.50;59.60;;;;;;5052592;28;20029;-56
2022/07/09 06:42:35;;;;;;;2.20;1.08;;;29.50;57.70;;;;;;5054034;28;20476;-45
2022/07/09 06:45:01;;;;;;;1.58;1.08;;;29.40;57.90;;;;;;5053888;28;20475;-53
2022/07/09 06:47:27;;;;;;;1.95;0.93;;;29.50;59.50;;;;;;5051452;28;20028;-56
2022/07/09 06:49:52;;;;;;;1.95;1.00;;;29.60;58.30;;;;;;5052894;28;20048;-51
2022/07/09 06:52:18;;;;;;;1.65;1.00;;;30.00;58.10;;;;;;5053215;28;20025;-53
2022/07/09 06:54:44;;;;;;;2.20;0.90;;;30.20;55.50;;;;;;5053924;28;20029;-43
2022/07/09 06:57:10;;;;;;;1.27;0.93;;;30.20;54.40;;;;;;5052648;28;20028;-38
2022/07/09 06:59:36;;;;;;;1.55;0.98;;;30.20;55.80;;;;;;5053580;28;20125;-38
2022/07/09 07:02:01;;;;;;;1.95;0.88;;;30.20;56.10;;;;;;5052333;28;20359;-50
2022/07/09 07:04:27;;;;;;;1.58;0.88;;;30.20;55.90;;;;;;5052528;28;20475;-41
2022/07/09 07:06:53;;;;;;;1.13;0.80;;;30.30;54.90;;;;;;5053144;28;20052;-54
2022/07/09 07:09:21;;;;;;;1.95;1.08;;;30.50;55.00;;;;;;5053892;28;20025;-57
2022/07/09 07:11:49;;;;;;;1.70;0.90;;;30.80;56.00;;;;;;5052977;28;20032;-42
2022/07/09 07:14:15;;;;;;;;;;;30.80;54.80;;;;;;5053834;28;20487;-44
2022/07/09 07:16:42;;;;;;;1.58;1.10;;;30.70;53.10;;;;;;5052456;28;19908;-50
2022/07/09 07:19:07;;;;;;;3.03;1.08;;;30.60;53.60;;;;;;5051368;28;20059;-56
2022/07/09 07:21:33;;;;;;;1.30;1.00;;;30.90;52.60;;;;;;5048819;28;20025;-54
2022/07/09 07:23:59;;;;;;;0.90;0.80;;;31.20;53.20;;;;;;5052955;28;20036;-56
2022/07/09 07:26:25;;;;;;;1.83;1.33;;;31.40;52.00;;;;;;5051257;28;20033;-53
2022/07/09 07:28:51;;;;;;;1.25;1.10;;;31.70;50.70;;;;;;5052737;28;20078;-52
2022/07/09 07:31:16;;;;;;;1.55;0.93;;;31.80;51.00;;;;;;5053268;28;20357;-42
2022/07/09 07:33:43;;;;;;;3.20;1.00;;;32.20;52.30;;;;;;5053358;28;20036;-53
2022/07/09 07:36:08;;;;;;;1.88;0.80;;;32.30;47.70;;;;;;5053595;28;20036;-49
2022/07/09 07:38:35;;;;;;;1.25;0.80;;;32.60;48.70;;;;;;5053335;28;20024;-46
2022/07/09 07:41:00;;;;;;;1.50;1.00;;;33.20;49.40;;;;;;5051753;28;20017;-42
2022/07/09 07:43:26;;;;;;;1.35;0.90;;;33.30;46.10;;;;;;5051294;28;20024;-43
2022/07/09 07:45:52;;;;;;;1.95;0.90;;;33.70;45.90;;;;;;5050819;28;20112;-50
2022/07/09 07:48:18;;;;;;;0.93;0.77;;;34.10;42.70;;;;;;5051212;28;20031;-49
2022/07/09 07:50:43;;;;;;;1.58;0.90;;;34.20;45.90;;;;;;5051232;28;20071;-55
2022/07/09 07:53:09;;;;;;;1.40;0.85;;;34.40;43.30;;;;;;5051270;28;20086;-53
2022/07/09 07:55:35;;;;;;;1.20;0.70;;;34.70;43.60;;;;;;5051580;28;20032;-46
2022/07/09 07:58:01;;;;;;;1.30;0.85;;;35.30;42.90;;;;;;5052919;28;20021;-51
2022/07/09 08:00:26;;;;;;;1.17;0.80;;;34.90;41.50;;;;;;5052870;28;20045;-52
2022/07/09 08:02:52;;;;;;;0.95;0.60;;;34.10;43.20;;;;;;5052977;28;20032;-51
2022/07/09 08:05:18;;;;;;;1.33;0.70;;;33.10;44.70;;;;;;5052838;28;20033;-58
2022/07/09 08:07:44;;;;;;;2.40;0.95;;;31.50;45.10;;;;;;5052620;28;20430;-52
2022/07/09 08:10:10;;;;;;;1.02;0.80;;;30.10;48.40;;;;;;5052500;28;20029;-48
2022/07/09 08:12:35;;;;;;;2.50;0.85;;;28.80;52.10;;;;;;5051953;28;20450;-48
2022/07/09 08:15:01;;;;;;;1.70;1.00;;;27.70;54.80;;;;;;5052121;28;20112;-47
2022/07/09 08:17:27;;;;;;;1.25;0.95;;;26.80;57.70;;;;;;5052168;28;20491;-54
2022/07/09 08:19:52;;;;;;;2.42;0.80;;;26.10;59.90;;;;;;5051879;28;20025;-53
2022/07/09 08:22:18;;;;;;;3.35;1.27;;;25.60;62.20;;;;;;5052485;28;20021;-54
2022/07/09 08:24:43;;;;;;;4.15;1.08;;;25.40;63.40;;;;;;5052087;28;20488;-52
2022/07/09 08:27:09;;;;;;;1.20;1.00;;;25.30;64.40;;;;;;5052203;28;20471;-47
2022/07/09 08:29:35;;;;;;;4.25;1.20;;;25.10;64.90;;;;;;5051957;28;20013;-45
2022/07/09 08:32:02;;;;;;;1.90;1.10;;;25.10;66.80;;;;;;5052185;28;20075;-53
2022/07/09 08:34:27;;;;;;;2.58;1.20;;;25.00;67.50;;;;;;5052016;28;20496;-51
2022/07/09 08:36:53;;;;;;;1.55;1.10;;;25.00;67.80;;;;;;5051933;28;20035;-43
2022/07/09 08:39:19;;;;;;;2.10;1.30;;;25.10;68.00;;;;;;5037992;28;20028;-45
2022/07/09 08:41:44;;;;;;;2.03;1.23;;;25.00;67.20;;;;;;5051492;28;20507;-49
2022/07/09 08:44:12;;;;;;;2.03;1.20;;;25.00;69.30;;;;;;5051519;28;20450;-52
2022/07/09 08:46:41;;;;;;;3.13;1.20;;;24.80;68.90;;;;;;5051755;28;20025;-52
2022/07/09 08:49:07;;;;;;;1.00;0.90;;;24.70;68.80;;;;;;5051596;28;20052;-52
2022/07/09 08:51:35;;;;;;;1.42;0.95;;;24.80;71.30;;;;;;5050538;28;20432;-51
2022/07/09 08:54:01;;;;;;;2.13;0.90;;;25.30;69.40;;;;;;5051831;28;20029;-56
2022/07/09 08:56:27;;;;;;;1.33;0.90;;;25.30;65.60;;;;;;5051495;28;20446;-47
2022/07/09 08:58:53;;;;;;;1.60;1.20;;;25.10;67.90;;;;;;5066737;28;20117;-55
2022/07/09 09:01:19;;;;;;;2.28;1.02;;;25.30;70.10;;;;;;5051214;28;20049;-46
2022/07/09 09:03:45;;;;;;;3.83;1.00;;;25.20;68.50;;;;;;5051657;28;20024;-58
2022/07/09 09:06:13;;;;;;;1.00;0.80;;;25.30;68.10;;;;;;5051253;28;20036;-44
2022/07/09 09:08:45;;;;;;;1.90;0.80;;;25.30;68.20;;;;;;5051371;28;20057;-42
2022/07/09 09:11:15;;;;;;;1.77;0.90;;;25.10;67.90;;;;;;5050934;28;20047;-46
2022/07/09 09:13:43;;;;;;;1.92;0.80;;;25.00;68.50;;;;;;5051422;28;20048;-39
2022/07/09 09:16:09;;;;;;;1.30;1.00;;;24.80;67.80;;;;;;5051221;28;20108;-39
2022/07/09 09:18:43;;;;;;;2.22;0.93;;;24.70;68.20;;;;;;5051225;28;20037;-39
2022/07/09 09:21:09;;;;;;;1.33;1.10;;;24.50;70.00;;;;;;5066756;28;20025;-39
2022/07/09 09:23:55;;;;;;;1.30;0.80;;;24.50;70.00;;;;;;5051165;28;20024;-43
2022/07/09 09:26:25;;;;;;;1.70;0.80;;;24.50;71.60;;;;;;5050919;28;20029;-48
2022/07/09 09:28:55;;;;;;;1.52;0.75;;;24.60;68.90;;;;;;5051011;28;20036;-39
2022/07/09 09:31:33;;;;;;;1.02;0.82;;;24.80;71.70;;;;;;5051126;28;20025;-39
2022/07/09 09:34:04;;;;;;;1.83;0.90;;;24.70;67.30;;;;;;5050747;28;20029;-40
2022/07/09 09:36:34;;;;;;;1.60;1.00;;;24.60;68.80;;;;;;5051218;28;20100;-39
2022/07/09 09:39:27;;;;;;;3.03;0.90;;;24.70;70.00;;;;;;5050830;28;20056;-54
2022/07/09 09:41:54;;;;;;;1.35;0.98;;;24.60;69.10;;;;;;5050450;28;20021;-41
2022/07/09 09:44:29;;;;;;;0.90;0.77;;;24.90;70.10;;;;;;5050676;28;20044;-39
2022/07/09 09:46:55;;;;;;;2.72;1.00;;;25.10;69.50;;;;;;5051067;28;20175;-50
2022/07/09 09:49:22;;;;;;;0.93;0.80;;;25.10;69.60;;;;;;5050600;28;20021;-53
2022/07/09 09:51:54;;;;;;;1.40;0.80;;;25.40;70.00;;;;;;5050947;28;20515;-52
2022/07/09 09:54:21;;;;;;;0.70;0.70;;;26.10;67.10;;;;;;5050608;28;20025;-44
2022/07/09 09:56:48;;;;;;;1.23;0.88;;;26.40;65.40;;;;;;5044262;28;20100;-44
2022/07/09 09:59:15;;;;;;;1.48;0.98;;;26.60;63.80;;;;;;5048442;28;20529;-43
2022/07/09 10:01:41;;;;;;;2.15;0.80;;;26.50;64.10;;;;;;5050118;28;20052;-60
2022/07/09 10:04:09;;;;;;;1.30;0.80;;;26.60;63.40;;;;;;5050149;28;20071;-50
2022/07/09 10:06:36;;;;;;;2.03;0.85;;;26.40;63.90;;;;;;5049977;28;20060;-45
2022/07/09 10:09:07;;;;;;;1.48;0.80;;;26.00;64.10;;;;;;5048892;28;20056;-44
2022/07/09 10:11:44;;;;;;;2.20;0.90;;;25.70;66.20;;;;;;5048191;28;20025;-47
2022/07/09 10:14:25;;;;;;;1.10;0.80;;;25.50;67.00;;;;;;5065917;28;20078;-49
2022/07/09 10:16:52;;;;;;;1.63;0.93;;;25.30;67.50;;;;;;5047217;28;20435;-46
2022/07/09 10:19:25;;;;;;;1.23;1.00;;;25.10;67.20;;;;;;5050578;28;20021;-57
2022/07/09 10:21:56;;;;;;;1.90;1.02;;;24.80;67.70;;;;;;5048534;28;20052;-46
2022/07/09 10:24:30;;;;;;;1.52;1.00;;;24.70;69.20;;;;;;5048382;28;20029;-47
2022/07/09 10:27:22;;;;;;;1.65;1.17;;;24.60;69.70;;;;;;5049692;28;20048;-48
2022/07/09 10:29:58;;;;;;;1.33;1.00;;;24.60;68.30;;;;;;5047152;28;20116;-56
2022/07/09 10:32:32;;;;;;;1.65;1.00;;;24.60;68.50;;;;;;5048735;28;20364;-47
2022/07/09 10:35:05;;;;;;;1.38;1.02;;;24.70;69.50;;;;;;5048007;28;20110;-48
2022/07/09 10:37:34;;;;;;;1.27;1.00;;;24.80;69.10;;;;;;5046107;28;20090;-42
2022/07/09 10:40:16;;;;;;;2.42;1.20;;;24.90;71.40;;;;;;5048911;28;20025;-50
2022/07/09 10:42:44;;;;;;;0.98;0.90;;;25.00;67.10;;;;;;5051991;28;20021;-43
2022/07/09 10:45:26;;;;;;;1.42;0.98;;;25.10;66.50;;;;;;5052390;28;20029;-50
2022/07/09 10:47:53;;;;;;;1.00;0.90;;;25.60;68.00;;;;;;5067242;28;20360;-52
2022/07/09 10:50:19;;;;;;;1.52;1.00;;;26.00;65.20;;;;;;5053832;28;20024;-53
2022/07/09 10:52:46;;;;;;;1.25;1.00;;;26.10;64.20;;;;;;5053434;28;20040;-57
2022/07/09 10:55:12;;;;;;;2.40;1.00;;;26.10;62.90;;;;;;5052905;28;20040;-50
2022/07/09 10:57:37;;;;;;;1.40;1.00;;;26.00;63.80;;;;;;5051652;28;20025;-48
2022/07/09 11:00:04;;;;;;;1.73;0.98;;;25.90;63.50;;;;;;5051555;28;20036;-53
2022/07/09 11:02:30;;;;;;;1.30;0.85;;;26.00;63.80;;;;;;5051945;28;20052;-45
2022/07/09 11:04:55;;;;;;;1.17;0.90;;;26.40;66.00;;;;;;5051919;28;20075;-57
2022/07/09 11:07:22;;;;;;;1.38;0.98;;;26.70;61.30;;;;;;5052132;28;20029;-55
2022/07/09 11:09:49;;;;;;;1.27;0.90;;;26.90;61.20;;;;;;5052197;28;20028;-58
2022/07/09 11:12:19;;;;;;;2.13;0.90;;;27.70;64.60;;;;;;5053673;28;20137;-54
2022/07/09 11:14:46;;;;;;;1.13;0.93;;;28.30;59.80;;;;;;5053619;28;20476;-49
2022/07/09 11:17:17;;;;;;;1.55;0.88;;;28.80;57.80;;;;;;5053760;28;20025;-54
2022/07/09 11:19:42;;;;;;;1.33;0.80;;;29.50;53.10;;;;;;5053310;28;20031;-53
2022/07/09 11:22:08;;;;;;;0.77;0.75;;;29.60;55.40;;;;;;5053413;28;20032;-46
2022/07/09 11:24:34;;;;;;;1.42;1.10;;;29.60;55.00;;;;;;5051764;28;20021;-53
2022/07/09 11:27:03;;;;;;;1.20;1.05;;;29.60;55.90;;;;;;5053534;28;20032;-52
2022/07/09 11:29:30;;;;;;;1.02;0.90;;;29.20;54.50;;;;;;5053544;28;20025;-51
2022/07/09 11:31:56;;;;;;;1.20;0.90;;;28.70;54.10;;;;;;5053378;28;20033;-43
2022/07/09 11:34:22;;;;;;;3.03;1.50;;;28.10;56.60;;;;;;5053473;28;20090;-55
2022/07/09 11:36:52;;;;;;;1.23;0.95;;;27.90;56.80;;;;;;5051878;28;20372;-57
2022/07/09 11:39:29;;;;;;;2.78;1.05;;;27.70;56.40;;;;;;5053147;28;20021;-45
2022/07/09 11:41:56;;;;;;;1.63;1.10;;;28.40;57.30;;;;;;5053164;28;20116;-44
2022/07/09 11:44:27;;;;;;;1.50;1.10;;;28.10;54.70;;;;;;5052976;28;20039;-54
2022/07/09 11:47:14;;;;;;;2.70;1.10;;;27.80;54.80;;;;;;5053202;28;20095;-56
2022/07/09 11:49:44;;;;;;;2.10;1.20;;;27.70;56.40;;;;;;5048843;28;20122;-59
2022/07/09 11:52:18;;;;;;;1.05;0.93;;;27.60;56.90;;;;;;5052110;28;20031;-50
2022/07/09 11:54:59;;;;;;;1.10;1.00;;;28.20;59.30;;;;;;5052143;28;20039;-50
2022/07/09 11:57:26;;;;;;;1.10;0.90;;;28.80;55.90;;;;;;5052881;28;20039;-50
2022/07/09 11:59:53;;;;;;;1.75;1.10;;;29.10;51.90;;;;;;5052368;28;20114;-41
2022/07/09 12:02:38;;;;;;;1.63;1.10;;;29.40;54.90;;;;;;5052102;28;20049;-49
2022/07/09 12:05:06;;;;;;;2.83;1.10;;;29.70;52.20;;;;;;5050474;28;20120;-47
2022/07/09 12:07:34;;;;;;;3.25;0.95;;;30.00;54.00;;;;;;5049551;28;20502;-50
2022/07/09 12:10:04;;;;;;;1.87;1.30;;;30.00;52.50;;;;;;5067360;28;20029;-49
2022/07/09 12:12:31;;;;;;;3.67;1.50;;;29.50;49.70;;;;;;5052006;28;20056;-50
2022/07/09 12:14:57;;;;;;;2.95;1.20;;;29.00;53.60;;;;;;5051864;28;20017;-47
2022/07/09 12:17:24;;;;;;;1.90;1.17;;;28.30;51.70;;;;;;5051925;28;20044;-51
2022/07/09 12:19:51;;;;;;;1.27;1.00;;;27.80;54.60;;;;;;5051622;28;20027;-55
2022/07/09 12:22:18;;;;;;;2.42;1.13;;;27.70;54.60;;;;;;5051987;28;20068;-49
2022/07/09 12:24:43;;;;;;;2.03;1.25;;;27.60;55.20;;;;;;5051790;28;20060;-55
2022/07/09 12:27:10;;;;;;;2.22;1.30;;;27.90;54.10;;;;;;5051542;28;20063;-49
2022/07/09 12:29:36;;;;;;;2.50;1.38;;;27.90;51.40;;;;;;5051935;28;20029;-45
2022/07/09 12:32:02;;;;;;;2.35;1.10;;;27.90;52.30;;;;;;5051718;28;20052;-42
2022/07/09 12:34:27;;;;;;;2.60;1.70;;;27.70;53.80;;;;;;5051753;28;20049;-43
2022/07/09 12:36:53;;;;;;;3.00;1.30;;;27.50;55.80;;;;;;5066995;28;20047;-50
2022/07/09 12:39:19;;;;;;;2.00;1.23;;;27.50;55.40;;;;;;5051441;28;20063;-56
2022/07/09 12:41:44;;;;;;;3.03;1.50;;;27.50;58.40;;;;;;5051508;28;20082;-45
2022/07/09 12:44:10;;;;;;;2.47;1.25;;;28.00;55.40;;;;;;5051122;28;20032;-39
2022/07/09 12:46:36;;;;;;;2.33;1.40;;;28.20;56.20;;;;;;5051371;28;20116;-41